createdAt,value
2019-05-19T00:04:45.037Z,100178.64
2019-05-19T00:07:16.191Z,100177.52
2019-05-19T00:09:47.390Z,100179.08
2019-05-19T00:12:18.547Z,100172.95
2019-05-19T00:14:49.547Z,100174.89
2019-05-19T00:17:20.877Z,100166.70
2019-05-19T00:19:51.938Z,100164.98
2019-05-19T00:22:23.031Z,100169.20
2019-05-19T00:24:54.130Z,100171.71
2019-05-19T00:27:25.188Z,100172.39
2019-05-19T00:29:56.163Z,100173.94
2019-05-19T00:32:27.244Z,100180.73
2019-05-19T00:34:58.691Z,100178.23
2019-05-19T00:37:29.901Z,100179.05
2019-05-19T00:40:01.957Z,100173.89
2019-05-19T00:42:33.151Z,100176.35
2019-05-19T00:45:08.383Z,100180.02
2019-05-19T00:47:39.462Z,100173.89
2019-05-19T00:50:10.865Z,100174.11
2019-05-19T00:52:42.078Z,100172.38
2019-05-19T00:55:13.290Z,100176.99
2019-05-19T00:57:44.527Z,100185.02
2019-05-19T01:00:16.479Z,100184.73
2019-05-19T01:02:47.635Z,100182.73
2019-05-19T01:05:20.676Z,100180.27
2019-05-19T01:07:51.744Z,100180.38
2019-05-19T01:10:22.749Z,100185.83
2019-05-19T01:12:54.279Z,100184.48
2019-05-19T01:15:25.327Z,100178.02
2019-05-19T01:17:56.472Z,100171.89
2019-05-19T01:20:27.396Z,100180.51
2019-05-19T01:22:58.473Z,100175.72
2019-05-19T01:25:29.571Z,100188.35
2019-05-19T01:28:00.698Z,100194.83
2019-05-19T01:30:33.839Z,100200.73
2019-05-19T01:33:04.939Z,100199.89
2019-05-19T01:35:35.936Z,100203.51
2019-05-19T01:38:07.007Z,100202.77
2019-05-19T01:40:38.275Z,100201.99
2019-05-19T01:43:09.580Z,100201.53
2019-05-19T01:45:40.862Z,100196.97
2019-05-19T01:48:12.181Z,100196.97
2019-05-19T01:50:43.457Z,100218.36
2019-05-19T01:53:14.432Z,100215.51
2019-05-19T01:55:45.375Z,100215.51
2019-05-19T01:58:16.382Z,100224.47
2019-05-19T02:00:48.593Z,100226.75
2019-05-19T02:03:19.775Z,100224.67
2019-05-19T02:05:50.854Z,100223.51
2019-05-19T02:08:21.889Z,100222.77
2019-05-19T02:10:54.078Z,100220.66
2019-05-19T02:13:25.155Z,100222.19
2019-05-19T02:15:56.483Z,100222.39
2019-05-19T02:18:27.486Z,100211.80
2019-05-19T02:20:58.411Z,100211.52
2019-05-19T02:23:29.519Z,100211.30
2019-05-19T02:26:00.664Z,100206.92
2019-05-19T02:28:31.720Z,100206.92
2019-05-19T02:31:02.737Z,100221.61
2019-05-19T02:33:35.807Z,100222.55
2019-05-19T02:36:06.752Z,100214.19
2019-05-19T02:38:37.899Z,100228.94
2019-05-19T02:41:09.107Z,100228.94
2019-05-19T02:43:40.206Z,100230.02
2019-05-19T02:46:11.379Z,100217.80
2019-05-19T02:48:42.745Z,100224.09
2019-05-19T02:51:13.935Z,100224.09
2019-05-19T02:53:45.161Z,100228.68
2019-05-19T02:56:16.314Z,100233.44
2019-05-19T02:58:47.253Z,100233.44
2019-05-19T03:01:18.386Z,100240.50
2019-05-19T03:03:49.533Z,100240.50
2019-05-19T03:06:23.653Z,100225.31
2019-05-19T03:08:54.766Z,100225.31
2019-05-19T03:11:25.940Z,100245.44
2019-05-19T03:13:57.469Z,100243.84
2019-05-19T03:16:28.694Z,100247.22
2019-05-19T03:18:59.978Z,100251.11
2019-05-19T03:21:31.071Z,100248.39
2019-05-19T03:24:02.303Z,100252.82
2019-05-19T03:26:33.423Z,100252.91
2019-05-19T03:29:04.531Z,100248.72
2019-05-19T03:31:55.737Z,100251.02
2019-05-19T03:34:28.057Z,100246.31
2019-05-19T03:36:59.114Z,100248.42
2019-05-19T03:39:30.271Z,100252.61
2019-05-19T03:42:01.283Z,100251.33
2019-05-19T03:44:32.529Z,100253.58
2019-05-19T03:47:03.725Z,100252.00
2019-05-19T03:49:34.759Z,100250.45
2019-05-19T03:52:05.879Z,100257.30
2019-05-19T03:54:36.985Z,100252.80
2019-05-19T03:57:08.041Z,100254.28
2019-05-19T03:59:39.251Z,100250.84
2019-05-19T04:02:10.391Z,100249.57
2019-05-19T04:04:41.640Z,100250.41
2019-05-19T04:07:12.716Z,100254.05
2019-05-19T04:09:43.922Z,100259.14
2019-05-19T04:12:14.861Z,100255.19
2019-05-19T04:14:45.959Z,100261.34
2019-05-19T04:17:16.998Z,100262.06
2019-05-19T04:19:47.988Z,100262.81
2019-05-19T04:22:19.122Z,100267.47
2019-05-19T04:24:50.360Z,100268.97
2019-05-19T04:27:21.323Z,100261.43
2019-05-19T04:29:52.276Z,100264.57
2019-05-19T04:32:23.283Z,100272.14
2019-05-19T04:34:54.389Z,100278.74
2019-05-19T04:37:25.486Z,100285.50
2019-05-19T04:39:56.518Z,100281.93
2019-05-19T04:42:27.406Z,100285.23
2019-05-19T04:44:58.535Z,100279.33
2019-05-19T04:47:29.664Z,100281.34
2019-05-19T04:50:00.819Z,100290.72
2019-05-19T04:52:32.756Z,100287.31
2019-05-19T04:55:04.247Z,100281.63
2019-05-19T04:57:36.752Z,100287.70
2019-05-19T05:00:08.804Z,100281.63
2019-05-19T05:02:39.869Z,100285.29
2019-05-19T05:05:11.037Z,100299.42
2019-05-19T05:07:42.171Z,100292.89
2019-05-19T05:10:13.171Z,100289.03
2019-05-19T05:12:44.265Z,100286.13
2019-05-19T05:15:15.288Z,100297.02
2019-05-19T05:17:46.335Z,100298.13
2019-05-19T05:20:17.491Z,100298.91
2019-05-19T05:22:49.099Z,100288.92
2019-05-19T05:25:20.118Z,100295.27
2019-05-19T05:27:51.557Z,100295.89
2019-05-19T05:30:22.588Z,100296.66
2019-05-19T05:32:53.690Z,100297.89
2019-05-19T05:35:24.776Z,100302.64
2019-05-19T05:37:55.866Z,100306.09
2019-05-19T05:40:26.956Z,100308.13
2019-05-19T05:42:58.327Z,100302.86
2019-05-19T05:45:29.415Z,100298.73
2019-05-19T05:48:01.473Z,100305.33
2019-05-19T05:50:32.485Z,100307.86
2019-05-19T05:53:03.604Z,100304.40
2019-05-19T05:55:34.788Z,100302.86
2019-05-19T05:58:05.904Z,100301.55
2019-05-19T06:00:36.999Z,100303.16
2019-05-19T06:03:08.011Z,100296.97
2019-05-19T06:05:39.242Z,100301.44
2019-05-19T06:08:10.192Z,100305.99
2019-05-19T06:10:41.250Z,100308.06
2019-05-19T06:13:12.379Z,100303.33
2019-05-19T06:15:44.210Z,100303.48
2019-05-19T06:18:15.336Z,100305.55
2019-05-19T06:20:46.271Z,100303.38
2019-05-19T06:23:18.207Z,100299.33
2019-05-19T06:25:49.250Z,100290.45
2019-05-19T06:28:20.595Z,100305.59
2019-05-19T06:30:51.745Z,100299.02
2019-05-19T06:33:22.999Z,100301.84
2019-05-19T06:35:54.365Z,100303.46
2019-05-19T06:38:25.880Z,100299.09
2019-05-19T06:40:56.984Z,100310.31
2019-05-19T06:43:28.043Z,100307.63
2019-05-19T06:45:59.368Z,100311.59
2019-05-19T06:48:30.490Z,100303.05
2019-05-19T06:51:01.719Z,100303.31
2019-05-19T06:53:32.681Z,100308.48
2019-05-19T06:56:04.967Z,100304.47
2019-05-19T06:58:36.036Z,100308.67
2019-05-19T07:01:07.088Z,100309.16
2019-05-19T07:03:38.282Z,100312.61
2019-05-19T07:06:10.952Z,100316.81
2019-05-19T07:08:42.002Z,100304.41
2019-05-19T07:11:13.219Z,100304.28
2019-05-19T07:13:44.438Z,100304.99
2019-05-19T07:16:15.537Z,100313.27
2019-05-19T07:18:46.668Z,100308.86
2019-05-19T07:21:17.975Z,100306.25
2019-05-19T07:23:48.996Z,100298.12
2019-05-19T07:26:20.152Z,100295.28
2019-05-19T07:28:51.245Z,100296.53
2019-05-19T07:31:22.372Z,100295.51
2019-05-19T07:33:53.605Z,100298.21
2019-05-19T07:36:24.831Z,100290.05
2019-05-19T07:38:55.850Z,100296.80
2019-05-19T07:41:27.144Z,100305.50
2019-05-19T07:43:58.204Z,100297.78
2019-05-19T07:46:29.378Z,100294.21
2019-05-19T07:49:00.493Z,100301.80
2019-05-19T07:51:31.565Z,100305.63
2019-05-19T07:54:02.677Z,100306.03
2019-05-19T07:56:33.725Z,100310.93
2019-05-19T07:59:07.813Z,100308.62
2019-05-19T08:01:37.509Z,100316.51
2019-05-19T08:04:08.592Z,100312.88
2019-05-19T08:06:39.579Z,100315.04
2019-05-19T08:09:10.597Z,100304.67
2019-05-19T08:11:41.673Z,100309.55
2019-05-19T08:14:12.749Z,100313.09
2019-05-19T08:16:43.959Z,100311.59
2019-05-19T08:19:15.143Z,100307.02
2019-05-19T08:21:46.266Z,100312.95
2019-05-19T08:24:17.267Z,100309.57
2019-05-19T08:26:48.380Z,100314.64
2019-05-19T08:29:19.416Z,100318.86
2019-05-19T08:31:51.671Z,100317.39
2019-05-19T08:34:22.885Z,100314.97
2019-05-19T08:36:55.013Z,100309.27
2019-05-19T08:39:26.064Z,100320.78
2019-05-19T08:41:57.156Z,100315.37
2019-05-19T08:44:28.265Z,100318.98
2019-05-19T08:46:59.344Z,100315.36
2019-05-19T08:49:30.513Z,100317.48
2019-05-19T08:52:01.676Z,100312.07
2019-05-19T08:54:32.865Z,100312.52
2019-05-19T08:57:04.003Z,100303.28
2019-05-19T08:59:35.034Z,100306.06
2019-05-19T09:02:06.097Z,100306.61
2019-05-19T09:04:37.042Z,100303.91
2019-05-19T09:07:08.088Z,100308.69
2019-05-19T09:09:39.265Z,100299.09
2019-05-19T09:12:10.718Z,100300.95
2019-05-19T09:14:41.713Z,100304.05
2019-05-19T09:17:12.916Z,100304.20
2019-05-19T09:19:44.021Z,100299.08
2019-05-19T09:22:15.018Z,100306.60
2019-05-19T09:24:46.059Z,100297.42
2019-05-19T09:27:17.174Z,100294.28
2019-05-19T09:29:48.159Z,100296.83
2019-05-19T09:32:20.884Z,100295.27
2019-05-19T09:34:51.895Z,100296.98
2019-05-19T09:37:22.959Z,100299.06
2019-05-19T09:39:54.098Z,100301.62
2019-05-19T09:42:25.269Z,100295.09
2019-05-19T09:44:56.401Z,100289.61
2019-05-19T09:47:27.451Z,100293.38
2019-05-19T09:49:58.536Z,100283.55
2019-05-19T09:52:29.622Z,100277.38
2019-05-19T09:55:00.825Z,100295.16
2019-05-19T09:57:31.995Z,100285.48
2019-05-19T10:00:04.082Z,100284.75
2019-05-19T10:02:36.271Z,100278.88
2019-05-19T10:05:07.537Z,100282.78
2019-05-19T10:07:38.579Z,100280.78
2019-05-19T10:10:15.591Z,100291.05
2019-05-19T10:12:46.890Z,100284.91
2019-05-19T10:15:18.071Z,100276.33
2019-05-19T10:17:49.255Z,100284.03
2019-05-19T10:20:20.204Z,100282.95
2019-05-19T10:22:51.275Z,100284.21
2019-05-19T10:25:23.206Z,100295.89
2019-05-19T10:27:54.719Z,100285.50
2019-05-19T10:30:25.743Z,100299.75
2019-05-19T10:32:58.833Z,100279.27
2019-05-19T10:35:29.752Z,100280.41
2019-05-19T10:38:00.887Z,100267.61
2019-05-19T10:40:32.964Z,100277.08
2019-05-19T10:43:04.982Z,100272.97
2019-05-19T10:45:37.566Z,100284.56
2019-05-19T10:48:08.618Z,100272.32
2019-05-19T10:50:39.562Z,100270.47
2019-05-19T10:53:10.759Z,100267.24
2019-05-19T10:55:41.790Z,100269.52
2019-05-19T10:58:12.858Z,100270.75
2019-05-19T11:00:45.251Z,100265.72
2019-05-19T11:03:16.390Z,100267.37
2019-05-19T11:05:47.382Z,100270.16
2019-05-19T11:08:18.350Z,100270.42
2019-05-19T11:10:49.845Z,100268.02
2019-05-19T11:13:21.350Z,100272.43
2019-05-19T11:15:52.350Z,100270.56
2019-05-19T11:18:23.407Z,100267.87
2019-05-19T11:20:54.532Z,100273.64
2019-05-19T11:23:25.680Z,100270.72
2019-05-19T11:25:56.943Z,100267.32
2019-05-19T11:28:28.063Z,100275.58
2019-05-19T11:30:59.126Z,100273.72
2019-05-19T11:33:30.230Z,100279.27
2019-05-19T11:36:01.258Z,100276.42
2019-05-19T11:38:32.446Z,100276.78
2019-05-19T11:41:03.656Z,100275.77
2019-05-19T11:43:35.730Z,100275.14
2019-05-19T11:46:06.772Z,100278.14
2019-05-19T11:48:37.768Z,100280.84
2019-05-19T11:51:08.896Z,100277.41
2019-05-19T11:53:41.554Z,100272.30
2019-05-19T11:56:12.579Z,100290.53
2019-05-19T11:58:43.690Z,100280.70
2019-05-19T12:01:14.976Z,100278.00
2019-05-19T12:03:46.079Z,100278.63
2019-05-19T12:06:17.086Z,100283.05
2019-05-19T12:08:48.139Z,100279.97
2019-05-19T12:11:19.251Z,100281.39
2019-05-19T12:13:50.486Z,100278.63
2019-05-19T12:16:21.415Z,100273.58
2019-05-19T12:18:52.412Z,100276.65
2019-05-19T12:21:23.589Z,100277.02
2019-05-19T12:23:54.811Z,100278.22
2019-05-19T12:26:25.851Z,100271.78
2019-05-19T12:28:57.138Z,100277.41
2019-05-19T12:31:28.211Z,100282.13
2019-05-19T12:33:59.336Z,100284.25
2019-05-19T12:36:30.411Z,100284.03
2019-05-19T12:39:01.504Z,100277.56
2019-05-19T12:41:33.925Z,100280.13
2019-05-19T12:44:04.984Z,100274.86
2019-05-19T12:46:35.992Z,100273.41
2019-05-19T12:49:07.169Z,100277.45
2019-05-19T12:51:38.284Z,100276.11
2019-05-19T12:54:09.320Z,100273.41
2019-05-19T12:56:42.401Z,100274.76
2019-05-19T12:59:14.385Z,100276.41
2019-05-19T13:01:45.468Z,100273.55
2019-05-19T13:04:16.458Z,100273.04
2019-05-19T13:06:47.411Z,100268.84
2019-05-19T13:09:18.596Z,100272.42
2019-05-19T13:11:49.814Z,100270.70
2019-05-19T13:14:20.839Z,100267.02
2019-05-19T13:16:51.850Z,100268.14
2019-05-19T13:19:23.081Z,100270.63
2019-05-19T13:21:54.096Z,100274.10
2019-05-19T13:24:25.105Z,100274.10
2019-05-19T13:26:57.036Z,100275.59
2019-05-19T13:29:28.323Z,100276.33
2019-05-19T13:31:59.320Z,100273.27
2019-05-19T13:34:30.449Z,100270.56
2019-05-19T13:37:01.449Z,100271.22
2019-05-19T13:39:32.534Z,100267.86
2019-05-19T13:42:03.743Z,100272.13
2019-05-19T13:44:34.893Z,100272.97
2019-05-19T13:47:05.852Z,100277.39
2019-05-19T13:49:36.908Z,100269.06
2019-05-19T13:52:08.058Z,100271.14
2019-05-19T13:54:39.197Z,100273.84
2019-05-19T13:57:12.557Z,100262.16
2019-05-19T13:59:42.850Z,100266.50
2019-05-19T14:02:13.816Z,100270.56
2019-05-19T14:04:45.029Z,100276.95
2019-05-19T14:07:16.094Z,100269.50
2019-05-19T14:09:47.382Z,100283.63
2019-05-19T14:12:18.401Z,100278.38
2019-05-19T14:14:49.636Z,100278.38
2019-05-19T14:17:20.564Z,100279.36
2019-05-19T14:19:51.677Z,100287.14
2019-05-19T14:22:22.699Z,100288.89
2019-05-19T14:24:53.870Z,100280.59
2019-05-19T14:27:30.575Z,100281.80
2019-05-19T14:29:58.737Z,100281.80
2019-05-19T14:32:31.215Z,100287.21
2019-05-19T14:35:02.408Z,100282.57
2019-05-19T14:37:34.799Z,100285.78
2019-05-19T14:40:06.313Z,100281.51
2019-05-19T14:42:51.400Z,100289.76
2019-05-19T14:45:22.580Z,100294.43
2019-05-19T14:47:53.589Z,100287.45
2019-05-19T14:50:24.722Z,100286.25
2019-05-19T14:52:55.736Z,100288.59
2019-05-19T14:55:26.727Z,100283.84
2019-05-19T14:57:57.682Z,100285.33
2019-05-19T15:00:28.885Z,100290.88
2019-05-19T15:02:59.894Z,100290.52
2019-05-19T15:05:30.964Z,100290.52
2019-05-19T15:08:01.956Z,100286.09
2019-05-19T15:10:33.056Z,100284.05
2019-05-19T15:13:04.046Z,100281.34
2019-05-19T15:15:35.211Z,100288.42
2019-05-19T15:18:06.136Z,100285.88
2019-05-19T15:20:37.224Z,100284.19
2019-05-19T15:23:08.410Z,100275.20
2019-05-19T15:25:39.571Z,100277.21
2019-05-19T15:28:10.715Z,100278.84
2019-05-19T15:30:41.811Z,100276.77
2019-05-19T15:33:12.976Z,100269.76
2019-05-19T15:35:44.113Z,100273.58
2019-05-19T15:38:15.410Z,100277.92
2019-05-19T15:40:46.462Z,100279.27
2019-05-19T15:43:17.496Z,100284.95
2019-05-19T15:45:48.627Z,100287.80
2019-05-19T15:48:19.820Z,100285.72
2019-05-19T15:50:50.990Z,100283.16
2019-05-19T15:53:22.234Z,100292.89
2019-05-19T15:55:53.191Z,100299.28
2019-05-19T15:58:24.210Z,100296.86
2019-05-19T16:00:55.192Z,100291.73
2019-05-19T16:03:26.209Z,100298.13
2019-05-19T16:05:57.284Z,100296.55
2019-05-19T16:08:28.372Z,100296.45
2019-05-19T16:10:59.443Z,100297.95
2019-05-19T16:13:30.368Z,100298.23
2019-05-19T16:16:01.602Z,100303.26
2019-05-19T16:18:32.783Z,100305.13
2019-05-19T16:21:03.828Z,100303.08
2019-05-19T16:23:34.832Z,100303.59
2019-05-19T16:26:07.125Z,100300.80
2019-05-19T16:28:38.133Z,100307.66
2019-05-19T16:31:09.172Z,100310.63
2019-05-19T16:33:40.259Z,100321.05
2019-05-19T16:36:11.377Z,100325.52
2019-05-19T16:38:42.552Z,100323.56
2019-05-19T16:41:13.555Z,100323.47
2019-05-19T16:43:44.523Z,100328.50
2019-05-19T16:46:16.669Z,100329.11
2019-05-19T16:48:47.818Z,100328.03
2019-05-19T16:51:18.959Z,100328.78
2019-05-19T16:53:51.678Z,100331.28
2019-05-19T16:56:23.799Z,100331.05
2019-05-19T16:58:54.941Z,100335.33
2019-05-19T17:01:26.385Z,100330.72
2019-05-19T17:03:57.589Z,100333.69
2019-05-19T17:06:28.701Z,100330.38
2019-05-19T17:09:00.175Z,100333.48
2019-05-19T17:11:31.811Z,100334.22
2019-05-19T17:14:02.970Z,100330.59
2019-05-19T17:16:35.045Z,100334.27
2019-05-19T17:19:06.083Z,100335.51
2019-05-19T17:21:37.218Z,100341.77
2019-05-19T17:24:08.415Z,100344.23
2019-05-19T17:26:39.533Z,100340.45
2019-05-19T17:29:10.632Z,100340.31
2019-05-19T17:31:41.847Z,100341.42
2019-05-19T17:34:12.854Z,100340.48
2019-05-19T17:36:44.039Z,100342.94
2019-05-19T17:39:14.919Z,100351.75
2019-05-19T17:41:45.960Z,100347.12
2019-05-19T17:44:17.175Z,100344.70
2019-05-19T17:46:48.541Z,100348.63
2019-05-19T17:49:19.615Z,100348.86
2019-05-19T17:51:51.956Z,100351.35
2019-05-19T17:54:22.953Z,100350.10
2019-05-19T17:56:54.221Z,100349.65
2019-05-19T17:59:25.529Z,100350.75
2019-05-19T18:01:56.601Z,100359.19
2019-05-19T18:04:27.747Z,100360.20
2019-05-19T18:06:58.879Z,100364.47
2019-05-19T18:09:30.084Z,100367.29
2019-05-19T18:12:01.071Z,100361.66
2019-05-19T18:14:32.040Z,100367.30
2019-05-19T18:17:03.672Z,100363.89
2019-05-19T18:19:34.620Z,100368.16
2019-05-19T18:22:05.721Z,100372.42
2019-05-19T18:24:36.759Z,100365.95
2019-05-19T18:27:07.805Z,100373.31
2019-05-19T18:29:38.932Z,100373.53
2019-05-19T18:32:09.906Z,100376.86
2019-05-19T18:34:40.974Z,100384.69
2019-05-19T18:37:13.566Z,100382.72
2019-05-19T18:39:44.630Z,100386.64
2019-05-19T18:42:15.694Z,100384.20
2019-05-19T18:44:46.769Z,100388.36
2019-05-19T18:47:18.072Z,100386.39
2019-05-19T18:49:49.259Z,100387.02
2019-05-19T18:52:20.397Z,100393.00
2019-05-19T18:54:51.638Z,100396.19
2019-05-19T18:57:24.378Z,100395.22
2019-05-19T18:59:55.459Z,100399.48
2019-05-19T19:02:26.630Z,100405.86
2019-05-19T19:04:57.871Z,100403.39
2019-05-19T19:07:47.345Z,100404.02
2019-05-19T19:10:18.295Z,100406.83
2019-05-19T19:12:49.453Z,100409.86
2019-05-19T19:15:20.824Z,100400.70
2019-05-19T19:17:52.007Z,100408.52
2019-05-19T19:20:23.062Z,100410.23
2019-05-19T19:22:54.464Z,100419.89
2019-05-19T19:25:25.482Z,100415.31
2019-05-19T19:27:56.620Z,100417.38
2019-05-19T19:30:27.740Z,100420.81
2019-05-19T19:32:59.111Z,100419.33
2019-05-19T19:35:38.850Z,100422.27
2019-05-19T19:38:03.420Z,100426.04
2019-05-19T19:40:34.509Z,100426.38
2019-05-19T19:43:05.579Z,100429.30
2019-05-19T19:45:36.653Z,100430.52
2019-05-19T19:48:07.856Z,100426.22
2019-05-19T19:50:38.944Z,100423.77
2019-05-19T19:53:10.030Z,100420.45
2019-05-19T19:55:41.152Z,100428.38
2019-05-19T19:58:12.167Z,100430.92
2019-05-19T20:00:44.304Z,100425.79
2019-05-19T20:03:15.527Z,100427.37
2019-05-19T20:05:46.749Z,100422.83
2019-05-19T20:08:17.874Z,100428.05
2019-05-19T20:10:48.907Z,100431.45
2019-05-19T20:13:19.972Z,100428.50
2019-05-19T20:15:51.031Z,100431.77
2019-05-19T20:18:22.329Z,100441.03
2019-05-19T20:20:53.419Z,100441.64
2019-05-19T20:23:24.823Z,100443.57
2019-05-19T20:25:55.984Z,100438.05
2019-05-19T20:28:27.112Z,100440.97
2019-05-19T20:30:58.211Z,100443.52
2019-05-19T20:33:29.457Z,100443.37
2019-05-19T20:36:01.453Z,100444.56
2019-05-19T20:38:32.659Z,100449.78
2019-05-19T20:41:03.836Z,100446.38
2019-05-19T20:43:35.261Z,100440.23
2019-05-19T20:46:06.321Z,100447.30
2019-05-19T20:48:37.527Z,100450.21
2019-05-19T20:51:08.642Z,100455.31
2019-05-19T20:53:39.665Z,100457.35
2019-05-19T20:56:10.718Z,100460.73
2019-05-19T20:58:41.840Z,100467.31
2019-05-19T21:01:12.823Z,100475.56
2019-05-19T21:03:43.903Z,100486.15
2019-05-19T21:06:15.103Z,100479.62
2019-05-19T21:08:46.345Z,100482.54
2019-05-19T21:11:17.368Z,100478.73
2019-05-19T21:13:48.356Z,100489.20
2019-05-19T21:16:19.378Z,100485.02
2019-05-19T21:19:10.706Z,100494.14
2019-05-19T21:21:42.757Z,100498.50
2019-05-19T21:24:13.820Z,100492.86
2019-05-19T21:26:44.817Z,100493.05
2019-05-19T21:29:15.908Z,100492.31
2019-05-19T21:31:46.866Z,100490.20
2019-05-19T21:34:17.932Z,100499.82
2019-05-19T21:36:49.130Z,100503.22
2019-05-19T21:39:20.253Z,100505.24
2019-05-19T21:41:51.411Z,100506.69
2019-05-19T21:44:22.395Z,100506.80
2019-05-19T21:46:53.403Z,100508.72
2019-05-19T21:49:24.549Z,100516.02
2019-05-19T21:51:55.504Z,100519.88
2019-05-19T21:54:26.860Z,100517.77
2019-05-19T21:56:57.958Z,100521.05
2019-05-19T21:59:29.021Z,100518.94
2019-05-19T22:02:00.028Z,100522.69
2019-05-19T22:04:31.157Z,100525.97
2019-05-19T22:07:04.792Z,100529.22
2019-05-19T22:09:36.313Z,100521.39
2019-05-19T22:12:07.453Z,100526.48
2019-05-19T22:14:39.633Z,100530.68
2019-05-19T22:17:10.859Z,100532.34
2019-05-19T22:19:41.969Z,100523.63
2019-05-19T22:22:12.967Z,100525.58
2019-05-19T22:24:44.088Z,100524.06
2019-05-19T22:27:15.123Z,100531.55
2019-05-19T22:29:46.241Z,100529.64
2019-05-19T22:32:17.573Z,100528.52
2019-05-19T22:34:48.688Z,100532.25
2019-05-19T22:37:19.831Z,100528.05
2019-05-19T22:39:50.884Z,100535.91
2019-05-19T22:42:21.926Z,100532.21
2019-05-19T22:44:52.919Z,100540.35
2019-05-19T22:47:23.873Z,100539.12
2019-05-19T22:49:54.963Z,100544.09
2019-05-19T22:52:26.025Z,100545.99
2019-05-19T22:54:57.121Z,100541.44
2019-05-19T22:57:28.316Z,100547.75
2019-05-19T22:59:59.446Z,100548.91
2019-05-19T23:02:30.603Z,100553.48
2019-05-19T23:05:01.727Z,100546.61
2019-05-19T23:07:33.019Z,100549.88
2019-05-19T23:10:05.690Z,100554.09
2019-05-19T23:12:37.731Z,100553.71
2019-05-19T23:15:09.034Z,100554.66
2019-05-19T23:17:40.236Z,100553.00
2019-05-19T23:20:12.566Z,100551.38
2019-05-19T23:22:43.801Z,100552.92
2019-05-19T23:25:15.114Z,100557.88
2019-05-19T23:27:47.266Z,100555.02
2019-05-19T23:30:18.445Z,100555.22
2019-05-19T23:32:49.405Z,100559.83
2019-05-19T23:35:20.431Z,100559.64
2019-05-19T23:37:52.503Z,100558.86
2019-05-19T23:40:23.554Z,100555.54
2019-05-19T23:42:54.508Z,100561.06
2019-05-19T23:45:25.558Z,100559.08
2019-05-19T23:47:56.677Z,100560.41
2019-05-19T23:50:27.735Z,100560.52
2019-05-19T23:52:58.687Z,100560.97
2019-05-19T23:55:29.805Z,100563.65
2019-05-19T23:58:00.743Z,100565.97
